Time;durP1;ratioP1;P1;durP2;ratioP2;P2;SDS_P1;SDS_P2;PMS_P1;PMS_P2;Temp;Humidity;BMP_temperature;BMP_pressure;BME280_temperature;BME280_humidity;BME280_pressure;Samples;Min_cycle;Max_cycle;Signal;HPM_P1;HPM_P2
2021/10/30 00:00:13;;;;;;;11.55;8.77;;;12.50;99.90;;;;;;5115930;28;20085;-70
2021/10/30 00:02:39;;;;;;;11.85;8.68;;;12.50;99.90;;;;;;5117141;28;20044;-71
2021/10/30 00:05:07;;;;;;;12.15;8.40;;;12.50;99.90;;;;;;5116526;28;20361;-70
2021/10/30 00:07:33;;;;;;;14.30;8.25;;;12.40;99.90;;;;;;5117508;28;20048;-70
2021/10/30 00:09:59;;;;;;;10.27;8.40;;;12.40;99.90;;;;;;5116407;28;20380;-70
2021/10/30 00:12:25;;;;;;;12.30;8.32;;;12.40;99.90;;;;;;5117255;27;20068;-70
2021/10/30 00:14:50;;;;;;;13.82;9.05;;;12.40;99.90;;;;;;5115788;28;20118;-70
2021/10/30 00:17:16;;;;;;;12.15;8.98;;;12.40;99.90;;;;;;5115582;28;20039;-70
2021/10/30 00:19:42;;;;;;;11.80;9.48;;;12.40;99.90;;;;;;5115129;28;20035;-70
2021/10/30 00:22:08;;;;;;;13.77;9.32;;;12.40;99.90;;;;;;5115274;28;20039;-70
2021/10/30 00:24:35;;;;;;;12.88;8.23;;;12.30;99.90;;;;;;5117504;28;20032;-70
2021/10/30 00:27:01;;;;;;;14.57;9.45;;;12.30;99.90;;;;;;5115149;28;20082;-70
2021/10/30 00:29:28;;;;;;;13.07;9.77;;;12.20;99.90;;;;;;5116321;28;20036;-70
2021/10/30 00:31:55;;;;;;;12.15;8.25;;;12.20;99.90;;;;;;5116687;28;20032;-70
2021/10/30 00:34:22;;;;;;;14.30;9.70;;;12.20;99.90;;;;;;5116715;28;20028;-70
2021/10/30 00:36:48;;;;;;;10.75;8.57;;;12.20;99.90;;;;;;5116622;28;20044;-70
2021/10/30 00:39:14;;;;;;;10.68;8.57;;;12.20;99.90;;;;;;5116340;28;20039;-70
2021/10/30 00:41:40;;;;;;;16.23;9.45;;;12.10;99.90;;;;;;5114979;28;20074;-70
2021/10/30 00:44:10;;;;;;;14.95;9.27;;;12.10;99.90;;;;;;5116461;28;20052;-70
2021/10/30 00:46:44;;;;;;;11.70;8.75;;;12.10;99.90;;;;;;5116281;27;20089;-70
2021/10/30 00:49:10;;;;;;;11.80;8.40;;;12.10;99.90;;;;;;5116295;28;20040;-70
2021/10/30 00:51:37;;;;;;;14.95;8.55;;;12.00;99.90;;;;;;5116286;28;20483;-71
2021/10/30 00:54:05;;;;;;;10.50;8.40;;;12.00;99.90;;;;;;5114886;28;20039;-70
2021/10/30 00:56:31;;;;;;;11.85;9.15;;;12.00;99.90;;;;;;5098577;28;20035;-70
2021/10/30 00:59:02;;;;;;;10.10;8.48;;;12.10;99.90;;;;;;5115797;28;20039;-70
2021/10/30 01:01:28;;;;;;;11.25;8.38;;;12.00;99.90;;;;;;5114793;28;20067;-70
2021/10/30 01:03:54;;;;;;;12.05;8.18;;;12.00;99.90;;;;;;5116796;27;20071;-70
2021/10/30 01:06:20;;;;;;;10.48;8.55;;;11.90;99.90;;;;;;5116409;28;20044;-70
2021/10/30 01:08:46;;;;;;;13.77;9.25;;;11.90;99.90;;;;;;5115341;28;20032;-70
2021/10/30 01:11:15;;;;;;;11.85;8.52;;;11.80;99.90;;;;;;5114914;28;20036;-70
2021/10/30 01:13:41;;;;;;;9.88;7.95;;;11.90;99.90;;;;;;5116005;28;20464;-70
2021/10/30 01:16:07;;;;;;;14.70;8.88;;;11.80;99.90;;;;;;5114653;28;20070;-70
2021/10/30 01:18:33;;;;;;;13.15;8.27;;;11.80;99.90;;;;;;5115387;28;20439;-69
2021/10/30 01:20:59;;;;;;;11.63;8.45;;;11.80;99.90;;;;;;5115316;28;20042;-70
2021/10/30 01:23:24;;;;;;;10.60;7.82;;;11.70;99.90;;;;;;5114367;28;20487;-70
2021/10/30 01:25:57;;;;;;;12.18;8.35;;;11.70;99.90;;;;;;5097499;28;20368;-70
2021/10/30 01:28:24;;;;;;;9.90;7.78;;;11.70;99.90;;;;;;5115386;28;20047;-71
2021/10/30 01:30:49;;;;;;;9.77;8.38;;;11.70;99.90;;;;;;5115613;28;20038;-70
2021/10/30 01:33:15;;;;;;;10.20;8.27;;;11.60;99.90;;;;;;5115066;28;20031;-70
2021/10/30 01:35:41;;;;;;;11.82;8.60;;;11.60;99.90;;;;;;5115414;28;20035;-70
2021/10/30 01:38:08;;;;;;;11.05;8.10;;;11.50;99.90;;;;;;5115775;28;20043;-70
2021/10/30 01:40:39;;;;;;;10.02;8.02;;;11.50;99.90;;;;;;5114859;28;20036;-70
2021/10/30 01:43:05;;;;;;;11.00;8.05;;;11.50;99.90;;;;;;5115575;28;20384;-70
2021/10/30 01:45:32;;;;;;;10.90;7.40;;;11.40;99.90;;;;;;5115087;28;20040;-70
2021/10/30 01:47:58;;;;;;;11.65;7.93;;;11.40;99.90;;;;;;5115525;28;20040;-70
2021/10/30 01:50:25;;;;;;;9.05;7.72;;;11.30;99.90;;;;;;5113513;28;20081;-70
2021/10/30 01:52:51;;;;;;;9.90;7.45;;;11.30;99.90;;;;;;5113559;28;20035;-70
2021/10/30 01:55:21;;;;;;;12.30;7.85;;;11.20;99.90;;;;;;5113977;28;20047;-70
2021/10/30 01:57:47;;;;;;;9.98;7.38;;;11.20;99.90;;;;;;5115310;28;20471;-70
2021/10/30 02:00:14;;;;;;;9.10;7.13;;;11.20;99.90;;;;;;5114358;28;20039;-71
2021/10/30 02:02:40;;;;;;;11.68;7.85;;;11.20;99.90;;;;;;5114578;28;20081;-70
2021/10/30 02:05:06;;;;;;;11.77;8.45;;;11.20;99.90;;;;;;5114964;28;20124;-70
2021/10/30 02:07:32;;;;;;;15.18;8.70;;;11.20;99.90;;;;;;5114845;28;20047;-70
2021/10/30 02:09:58;;;;;;;10.32;7.18;;;11.20;99.90;;;;;;5113697;28;20039;-70
2021/10/30 02:12:24;;;;;;;13.52;7.95;;;11.10;99.90;;;;;;5114348;28;20063;-70
2021/10/30 02:14:49;;;;;;;13.50;8.05;;;11.10;99.90;;;;;;5115054;28;20464;-70
2021/10/30 02:17:15;;;;;;;10.32;7.30;;;11.00;99.90;;;;;;5114276;28;20048;-70
2021/10/30 02:19:40;;;;;;;13.07;8.77;;;11.00;99.90;;;;;;5112770;28;20047;-70
2021/10/30 02:22:07;;;;;;;10.20;7.65;;;11.10;99.90;;;;;;5113187;28;20505;-70
2021/10/30 02:24:33;;;;;;;12.18;8.02;;;11.00;99.90;;;;;;5114555;28;20035;-70
2021/10/30 02:26:59;;;;;;;14.80;9.05;;;11.00;99.90;;;;;;5114828;27;20498;-70
2021/10/30 02:29:25;;;;;;;11.50;8.38;;;11.00;99.90;;;;;;5114111;28;20563;-70
2021/10/30 02:31:50;;;;;;;10.88;8.25;;;10.90;99.90;;;;;;5114461;28;20053;-70
2021/10/30 02:34:16;;;;;;;14.88;9.10;;;10.90;99.90;;;;;;5113971;28;20476;-70
2021/10/30 02:36:42;;;;;;;11.15;8.20;;;10.90;99.90;;;;;;5114059;28;20118;-70
2021/10/30 02:39:10;;;;;;;12.02;7.97;;;10.80;99.90;;;;;;5112750;28;20064;-70
2021/10/30 02:41:36;;;;;;;11.70;8.07;;;10.90;99.90;;;;;;5114124;28;20077;-70
2021/10/30 02:44:02;;;;;;;12.77;8.25;;;10.90;99.90;;;;;;5113979;28;20035;-70
2021/10/30 02:46:28;;;;;;;11.32;7.60;;;10.90;99.90;;;;;;5114068;28;20039;-70
2021/10/30 02:48:54;;;;;;;12.82;8.60;;;10.90;99.90;;;;;;5113578;28;20381;-70
2021/10/30 02:51:20;;;;;;;10.18;7.72;;;10.90;99.90;;;;;;5113888;28;20051;-70
2021/10/30 02:53:46;;;;;;;10.77;8.05;;;10.90;99.90;;;;;;5114566;28;20036;-70
2021/10/30 02:56:12;;;;;;;11.57;8.02;;;10.90;99.90;;;;;;5114603;28;20066;-70
2021/10/30 02:58:37;;;;;;;9.90;7.97;;;10.90;99.90;;;;;;5113477;28;20077;-70
2021/10/30 03:01:03;;;;;;;12.48;8.93;;;10.90;99.90;;;;;;5114046;28;20395;-70
2021/10/30 03:03:28;;;;;;;12.85;9.25;;;10.90;99.90;;;;;;5113930;28;20035;-70
2021/10/30 03:05:54;;;;;;;10.80;9.57;;;10.80;99.90;;;;;;5114100;28;20519;-70
2021/10/30 03:08:20;;;;;;;15.52;8.60;;;10.80;99.90;;;;;;5113850;28;20043;-70
2021/10/30 03:10:46;;;;;;;11.02;8.80;;;10.80;99.90;;;;;;5113931;28;20122;-70
2021/10/30 03:13:11;;;;;;;14.05;10.05;;;10.70;99.90;;;;;;5113654;28;20040;-70
2021/10/30 03:15:37;;;;;;;13.85;8.57;;;10.70;99.90;;;;;;5113645;28;20032;-70
2021/10/30 03:18:02;;;;;;;13.48;8.65;;;10.80;99.90;;;;;;5113806;28;20122;-70
2021/10/30 03:20:28;;;;;;;11.60;8.85;;;10.70;99.90;;;;;;5113578;28;20032;-70
2021/10/30 03:22:54;;;;;;;12.43;8.77;;;10.70;99.90;;;;;;5114213;28;20036;-70
2021/10/30 03:25:20;;;;;;;14.15;10.05;;;10.70;99.90;;;;;;5114540;28;20118;-70
2021/10/30 03:27:46;;;;;;;12.52;9.32;;;10.80;99.90;;;;;;5116774;28;20044;-70
2021/10/30 03:30:12;;;;;;;16.52;10.48;;;10.70;99.90;;;;;;5117567;28;20041;-70
2021/10/30 03:32:38;;;;;;;13.68;10.68;;;10.70;99.90;;;;;;5117853;28;20036;-70
2021/10/30 03:35:04;;;;;;;16.15;9.25;;;10.70;99.90;;;;;;5099652;28;20147;-70
2021/10/30 03:37:34;;;;;;;16.05;9.88;;;10.70;99.90;;;;;;5117656;28;20040;-70
2021/10/30 03:40:00;;;;;;;13.45;9.45;;;10.70;99.90;;;;;;5117058;28;20039;-69
2021/10/30 03:42:26;;;;;;;16.83;10.90;;;10.60;99.90;;;;;;5116428;28;20044;-70
2021/10/30 03:44:51;;;;;;;13.68;10.10;;;10.60;99.90;;;;;;5115872;28;20048;-70
2021/10/30 03:47:17;;;;;;;13.32;10.10;;;10.60;99.90;;;;;;5117416;28;20093;-70
2021/10/30 03:49:44;;;;;;;13.25;10.57;;;10.60;99.90;;;;;;5117615;28;20088;-70
2021/10/30 03:52:10;;;;;;;17.55;10.50;;;10.60;99.90;;;;;;5117167;28;20032;-70
2021/10/30 03:54:36;;;;;;;14.95;10.75;;;10.60;99.90;;;;;;5117910;28;20080;-70
2021/10/30 03:57:02;;;;;;;15.88;11.23;;;10.60;99.90;;;;;;5117828;28;20079;-70
2021/10/30 03:59:28;;;;;;;14.45;11.18;;;10.60;99.90;;;;;;5115857;28;20047;-70
2021/10/30 04:01:54;;;;;;;14.95;11.15;;;10.60;99.90;;;;;;5117006;28;20067;-70
2021/10/30 04:04:19;;;;;;;17.67;12.50;;;10.60;99.90;;;;;;5117154;28;20073;-70
2021/10/30 04:06:45;;;;;;;15.50;12.38;;;10.60;99.90;;;;;;5117079;28;20408;-70
2021/10/30 04:09:11;;;;;;;19.23;12.98;;;10.60;99.90;;;;;;5116933;28;20046;-70
2021/10/30 04:11:37;;;;;;;19.77;13.40;;;10.60;99.90;;;;;;5116840;28;20067;-70
2021/10/30 04:14:03;;;;;;;20.30;14.00;;;10.60;99.90;;;;;;5115785;28;20421;-70
2021/10/30 04:16:29;;;;;;;17.10;13.27;;;10.60;99.90;;;;;;5117062;28;20040;-69
2021/10/30 04:18:58;;;;;;;19.98;13.90;;;10.60;99.90;;;;;;5114323;28;20039;-70
2021/10/30 04:21:24;;;;;;;22.05;14.50;;;10.60;99.90;;;;;;5114800;28;20525;-70
2021/10/30 04:23:49;;;;;;;18.77;14.70;;;10.60;99.90;;;;;;5115778;28;20032;-70
2021/10/30 04:26:15;;;;;;;19.80;14.23;;;10.60;99.90;;;;;;5115276;28;20032;-70
2021/10/30 04:28:41;;;;;;;18.77;14.93;;;10.70;99.90;;;;;;5113990;28;20049;-70
2021/10/30 04:31:09;;;;;;;22.48;15.63;;;10.60;99.90;;;;;;5115706;28;20118;-69
2021/10/30 04:33:36;;;;;;;22.20;15.60;;;10.60;99.90;;;;;;5115339;28;20040;-70
2021/10/30 04:36:03;;;;;;;24.45;16.98;;;10.60;99.90;;;;;;5115508;28;20038;-70
2021/10/30 04:38:29;;;;;;;23.30;16.90;;;10.60;99.90;;;;;;5114280;28;20047;-70
2021/10/30 04:40:55;;;;;;;29.10;18.48;;;10.60;99.90;;;;;;5114502;28;20091;-70
2021/10/30 04:43:21;;;;;;;28.20;18.55;;;10.70;99.90;;;;;;5114037;28;20043;-70
2021/10/30 04:45:46;;;;;;;29.02;20.33;;;10.70;99.90;;;;;;5113863;28;20043;-70
2021/10/30 04:48:12;;;;;;;27.70;19.30;;;10.70;99.90;;;;;;5115155;28;20132;-70
2021/10/30 04:50:39;;;;;;;28.45;20.98;;;10.70;99.90;;;;;;5115299;28;20042;-70
2021/10/30 04:53:06;;;;;;;29.70;19.52;;;10.70;99.90;;;;;;5114793;28;20036;-71
2021/10/30 04:55:32;;;;;;;28.45;20.55;;;10.70;99.90;;;;;;5114879;28;20506;-70
2021/10/30 04:57:58;;;;;;;27.95;19.15;;;10.70;99.90;;;;;;5113861;28;20043;-70
2021/10/30 05:00:23;;;;;;;28.50;20.13;;;10.80;99.90;;;;;;5114630;28;20089;-70
2021/10/30 05:02:49;;;;;;;31.08;21.55;;;10.80;99.90;;;;;;5114987;28;20126;-70
2021/10/30 05:05:15;;;;;;;30.92;21.35;;;10.70;99.90;;;;;;5115307;28;20039;-70
2021/10/30 05:07:40;;;;;;;32.83;21.52;;;10.70;99.90;;;;;;5115355;28;20046;-70
2021/10/30 05:10:06;;;;;;;28.70;19.67;;;10.80;99.90;;;;;;5114923;28;20082;-70
2021/10/30 05:12:32;;;;;;;30.55;21.27;;;10.80;99.90;;;;;;5115052;28;20046;-70
2021/10/30 05:14:57;;;;;;;35.20;23.17;;;10.80;99.90;;;;;;5114794;28;20035;-70
2021/10/30 05:17:23;;;;;;;35.60;23.45;;;10.80;99.90;;;;;;5078230;28;1038870;-70
2021/10/30 05:19:48;;;;;;;35.15;22.33;;;10.80;99.90;;;;;;5115361;28;20054;-70
2021/10/30 05:22:14;;;;;;;32.28;21.13;;;10.80;99.90;;;;;;5115434;28;20035;-71
2021/10/30 05:24:40;;;;;;;32.22;21.75;;;10.90;99.90;;;;;;5116417;28;20075;-70
2021/10/30 05:27:06;;;;;;;32.58;20.85;;;10.90;99.90;;;;;;5115651;28;20139;-70
2021/10/30 05:29:31;;;;;;;33.00;22.90;;;10.90;99.90;;;;;;5114147;28;20040;-70
2021/10/30 05:31:57;;;;;;;28.00;20.98;;;10.90;99.90;;;;;;5115576;28;20043;-70
2021/10/30 05:34:22;;;;;;;37.50;23.67;;;10.90;99.90;;;;;;5115594;28;20059;-70
2021/10/30 05:36:48;;;;;;;36.90;22.95;;;10.90;99.90;;;;;;5113968;28;20400;-70
2021/10/30 05:39:16;;;;;;;33.45;23.17;;;10.90;99.90;;;;;;5114785;28;20046;-70
2021/10/30 05:41:42;;;;;;;29.10;21.83;;;10.90;99.90;;;;;;5115476;28;20040;-70
2021/10/30 05:44:08;;;;;;;31.55;22.80;;;10.90;99.90;;;;;;5115457;28;20118;-70
2021/10/30 05:46:36;;;;;;;33.05;22.42;;;10.90;99.90;;;;;;5114987;28;20043;-70
2021/10/30 05:49:03;;;;;;;37.95;23.77;;;11.00;99.90;;;;;;5114417;28;20114;-70
2021/10/30 05:51:30;;;;;;;31.95;21.80;;;11.00;99.90;;;;;;5115412;28;20044;-70
2021/10/30 05:53:56;;;;;;;32.55;22.55;;;11.10;99.90;;;;;;5115049;28;20074;-70
2021/10/30 05:56:22;;;;;;;33.67;21.50;;;11.00;99.90;;;;;;5115024;28;20078;-70
2021/10/30 05:58:47;;;;;;;33.80;20.33;;;11.10;99.90;;;;;;5113350;28;20035;-70
2021/10/30 06:01:13;;;;;;;27.05;20.08;;;11.10;99.90;;;;;;5115234;28;20152;-70
2021/10/30 06:03:38;;;;;;;26.75;18.55;;;11.10;99.90;;;;;;5113388;28;20395;-70
2021/10/30 06:06:04;;;;;;;24.70;18.55;;;11.10;99.90;;;;;;5115256;28;20027;-70
2021/10/30 06:08:29;;;;;;;22.75;17.42;;;11.10;99.90;;;;;;5113092;28;20097;-71
2021/10/30 06:10:55;;;;;;;23.02;17.50;;;11.10;99.90;;;;;;5113358;28;20039;-70
2021/10/30 06:13:21;;;;;;;23.17;16.63;;;11.10;99.90;;;;;;5114732;28;20107;-70
2021/10/30 06:15:46;;;;;;;24.33;16.55;;;11.10;99.90;;;;;;5114700;28;20488;-70
2021/10/30 06:18:12;;;;;;;24.85;16.35;;;11.10;99.90;;;;;;5114342;28;20206;-70
2021/10/30 06:20:38;;;;;;;27.60;17.42;;;11.10;99.90;;;;;;5114183;28;20092;-70
2021/10/30 06:23:04;;;;;;;25.73;18.00;;;11.10;99.90;;;;;;5113239;28;20078;-70
2021/10/30 06:25:30;;;;;;;24.77;17.88;;;11.10;99.90;;;;;;5114687;28;20036;-70
2021/10/30 06:27:56;;;;;;;22.70;15.80;;;11.10;99.90;;;;;;5114414;28;20083;-70
2021/10/30 06:30:22;;;;;;;22.90;15.60;;;11.10;99.90;;;;;;5114142;28;20063;-70
2021/10/30 06:32:47;;;;;;;22.58;15.57;;;11.10;99.90;;;;;;5114757;28;20043;-70
2021/10/30 06:35:13;;;;;;;20.25;15.20;;;11.20;99.90;;;;;;5114429;28;20038;-70
2021/10/30 06:37:39;;;;;;;18.65;14.20;;;11.20;99.90;;;;;;5095871;28;20051;-70
2021/10/30 06:40:10;;;;;;;23.80;15.63;;;11.20;99.90;;;;;;5113827;28;20083;-70
2021/10/30 06:42:37;;;;;;;21.55;14.95;;;11.20;99.90;;;;;;5113353;28;20050;-70
2021/10/30 06:45:03;;;;;;;18.45;13.90;;;11.20;99.90;;;;;;5114363;28;20036;-70
2021/10/30 06:47:30;;;;;;;19.50;14.00;;;11.20;99.90;;;;;;5113297;28;20475;-70
2021/10/30 06:50:00;;;;;;;19.13;13.90;;;11.20;99.90;;;;;;5095839;28;20039;-70
2021/10/30 06:52:37;;;;;;;19.15;12.60;;;11.20;99.90;;;;;;5113857;28;20039;-70
2021/10/30 06:55:09;;;;;;;19.90;13.45;;;11.20;99.90;;;;;;5113156;28;20051;-70
2021/10/30 06:57:36;;;;;;;18.45;12.02;;;11.20;99.90;;;;;;5112718;28;20051;-70
2021/10/30 07:00:06;;;;;;;17.65;11.98;;;11.20;99.90;;;;;;5113389;28;20045;-70
2021/10/30 07:02:32;;;;;;;17.08;12.50;;;11.20;99.90;;;;;;5112877;28;20088;-70
2021/10/30 07:04:59;;;;;;;17.30;11.75;;;11.20;99.90;;;;;;5112466;28;20043;-70
2021/10/30 07:07:25;;;;;;;16.35;11.80;;;11.20;99.90;;;;;;5113732;28;20049;-70
2021/10/30 07:09:54;;;;;;;14.32;11.23;;;11.20;99.90;;;;;;5113793;28;20039;-70
2021/10/30 07:12:20;;;;;;;17.90;11.55;;;11.30;99.90;;;;;;5114258;28;20089;-70
2021/10/30 07:14:47;;;;;;;14.80;10.90;;;11.20;99.90;;;;;;5113153;28;20051;-70
2021/10/30 07:17:12;;;;;;;16.65;10.80;;;11.20;99.90;;;;;;5112159;28;20071;-70
2021/10/30 07:19:38;;;;;;;19.00;11.30;;;11.20;99.90;;;;;;5112202;28;20079;-70
2021/10/30 07:22:03;;;;;;;15.25;10.23;;;11.30;99.90;;;;;;5113992;28;20039;-70
2021/10/30 07:24:29;;;;;;;14.02;10.32;;;11.30;99.90;;;;;;5114264;28;20460;-70
2021/10/30 07:26:55;;;;;;;14.60;9.98;;;11.30;99.90;;;;;;5113472;28;20040;-70
2021/10/30 07:29:20;;;;;;;15.35;10.35;;;11.30;99.90;;;;;;5113011;28;20115;-69
2021/10/30 07:31:46;;;;;;;15.82;9.80;;;11.30;99.90;;;;;;5113619;28;20032;-70
2021/10/30 07:34:11;;;;;;;15.00;10.30;;;11.40;99.90;;;;;;5112093;28;20036;-70
2021/10/30 07:36:37;;;;;;;11.75;9.75;;;11.40;99.90;;;;;;5112483;28;20043;-70
2021/10/30 07:39:02;;;;;;;21.33;11.15;;;11.40;99.90;;;;;;5095121;28;20039;-71
2021/10/30 07:41:29;;;;;;;15.15;9.60;;;11.40;99.90;;;;;;5113565;28;20043;-70
2021/10/30 07:43:54;;;;;;;13.18;9.48;;;11.40;99.90;;;;;;5113667;28;20173;-71
2021/10/30 07:46:22;;;;;;;15.70;9.52;;;11.30;99.90;;;;;;5095052;28;20110;-70
2021/10/30 07:48:48;;;;;;;15.98;10.18;;;11.40;99.90;;;;;;5111701;28;20039;-70
2021/10/30 07:51:13;;;;;;;16.40;9.68;;;11.40;99.90;;;;;;5113536;28;20035;-70
2021/10/30 07:53:39;;;;;;;14.15;9.95;;;11.30;99.90;;;;;;5112240;28;20502;-70
2021/10/30 07:56:05;;;;;;;15.45;9.85;;;11.30;99.90;;;;;;5113832;28;20036;-70
2021/10/30 07:58:30;;;;;;;18.73;10.35;;;11.30;99.90;;;;;;5113508;28;20454;-69
2021/10/30 08:00:56;;;;;;;15.05;10.27;;;11.30;99.90;;;;;;5113833;28;20548;-69
2021/10/30 08:03:21;;;;;;;13.82;9.68;;;11.30;99.90;;;;;;5113882;28;20043;-70
2021/10/30 08:05:47;;;;;;;16.50;10.75;;;11.20;99.90;;;;;;5112003;28;20046;-68
2021/10/30 08:08:13;;;;;;;14.50;10.43;;;11.30;99.90;;;;;;5113088;28;20122;-68
2021/10/30 08:10:38;;;;;;;14.65;10.15;;;11.20;99.90;;;;;;5112351;28;20049;-69
2021/10/30 08:13:09;;;;;;;15.40;10.45;;;11.30;99.90;;;;;;5117291;28;20038;-69
2021/10/30 08:15:35;;;;;;;16.20;11.13;;;11.20;99.90;;;;;;5116227;28;20042;-69
2021/10/30 08:18:01;;;;;;;13.68;10.07;;;11.30;99.90;;;;;;5115675;28;20047;-69
2021/10/30 08:20:26;;;;;;;17.42;11.02;;;11.30;99.90;;;;;;5116511;28;20042;-68
2021/10/30 08:22:52;;;;;;;14.15;10.20;;;11.30;99.90;;;;;;5116983;28;20036;-69
2021/10/30 08:25:17;;;;;;;16.20;10.40;;;11.40;99.90;;;;;;5116000;28;20383;-69
2021/10/30 08:27:43;;;;;;;13.50;10.57;;;11.30;99.90;;;;;;5117236;28;20040;-69
2021/10/30 08:30:09;;;;;;;14.35;10.43;;;11.30;99.90;;;;;;5116279;28;20475;-68
2021/10/30 08:32:35;;;;;;;13.43;10.18;;;11.30;99.90;;;;;;5115479;28;20036;-69
2021/10/30 08:35:01;;;;;;;14.98;10.40;;;11.30;99.90;;;;;;5116615;28;20540;-69
2021/10/30 08:37:27;;;;;;;15.98;10.43;;;11.30;99.90;;;;;;5116885;28;20136;-68
2021/10/30 08:39:52;;;;;;;15.27;11.02;;;11.40;99.90;;;;;;5116197;28;20069;-69
2021/10/30 08:42:21;;;;;;;16.20;10.13;;;11.30;99.90;;;;;;5114978;28;20056;-70
2021/10/30 08:44:53;;;;;;;12.35;9.77;;;11.40;99.90;;;;;;5098288;28;20062;-69
2021/10/30 08:47:19;;;;;;;15.25;9.95;;;11.40;99.90;;;;;;5116441;28;20119;-69
2021/10/30 08:49:45;;;;;;;14.80;10.73;;;11.40;99.90;;;;;;5114771;28;20096;-69
2021/10/30 08:52:11;;;;;;;15.65;10.02;;;11.50;99.90;;;;;;5116207;28;20081;-69
2021/10/30 08:54:38;;;;;;;17.60;10.10;;;11.40;99.90;;;;;;5115515;28;20039;-69
2021/10/30 08:57:07;;;;;;;12.98;8.82;;;11.40;99.90;;;;;;5115018;28;20044;-69
2021/10/30 08:59:54;;;;;;;14.77;9.85;;;11.40;99.90;;;;;;5114579;28;20082;-69
2021/10/30 09:02:26;;;;;;;15.77;10.68;;;11.50;99.90;;;;;;5116310;28;20479;-69
2021/10/30 09:05:08;;;;;;;14.60;10.45;;;11.50;99.90;;;;;;5116743;28;20046;-69
2021/10/30 09:07:35;;;;;;;16.50;10.07;;;11.50;99.90;;;;;;5114683;28;20092;-69
2021/10/30 09:10:00;;;;;;;15.20;10.50;;;11.50;99.90;;;;;;5115663;28;20067;-69
2021/10/30 09:12:26;;;;;;;13.23;10.00;;;11.50;99.90;;;;;;5115754;28;20075;-69
2021/10/30 09:14:52;;;;;;;17.15;10.40;;;11.50;99.90;;;;;;5114505;28;20036;-69
2021/10/30 09:17:22;;;;;;;14.95;10.48;;;11.50;99.90;;;;;;5115510;28;20399;-69
2021/10/30 09:19:49;;;;;;;16.27;10.95;;;11.60;99.90;;;;;;5115510;27;20045;-69
2021/10/30 09:22:16;;;;;;;15.65;11.00;;;11.60;99.90;;;;;;5113520;28;20123;-69
2021/10/30 09:24:53;;;;;;;15.02;11.10;;;11.50;99.90;;;;;;5115921;27;20464;-70
2021/10/30 09:27:43;;;;;;;16.58;10.70;;;11.60;99.90;;;;;;5115413;28;20046;-69
2021/10/30 09:30:09;;;;;;;17.92;10.15;;;11.60;99.90;;;;;;5115095;28;20068;-69
2021/10/30 09:32:35;;;;;;;16.23;11.45;;;11.60;99.90;;;;;;5097064;28;20044;-69
2021/10/30 09:35:04;;;;;;;15.23;10.73;;;11.70;99.90;;;;;;5115475;28;20035;-69
2021/10/30 09:37:36;;;;;;;17.23;10.48;;;11.70;99.90;;;;;;5114350;28;20047;-69
2021/10/30 09:40:29;;;;;;;17.50;11.35;;;11.70;99.90;;;;;;5115446;28;20035;-68
2021/10/30 09:43:27;;;;;;;20.55;11.27;;;11.80;99.90;;;;;;5115607;28;20074;-69
2021/10/30 09:45:55;;;;;;;15.30;10.57;;;11.80;99.90;;;;;;5058924;28;20055;-69
2021/10/30 09:48:27;;;;;;;15.35;10.45;;;11.80;99.90;;;;;;5114155;28;20044;-69
2021/10/30 09:50:58;;;;;;;14.27;11.10;;;11.80;99.90;;;;;;5111315;28;20118;-70
2021/10/30 09:53:32;;;;;;;14.27;10.30;;;11.90;99.90;;;;;;5114280;28;20158;-69
2021/10/30 09:56:07;;;;;;;14.20;9.38;;;12.00;99.90;;;;;;5115039;28;20048;-69
2021/10/30 09:58:38;;;;;;;13.90;9.35;;;12.00;99.90;;;;;;5102857;28;20040;-68
2021/10/30 10:01:19;;;;;;;13.02;10.45;;;12.00;99.90;;;;;;5095142;28;20115;-69
2021/10/30 10:03:46;;;;;;;14.32;9.07;;;12.10;99.90;;;;;;5093792;28;20044;-69
2021/10/30 10:06:14;;;;;;;12.95;9.25;;;12.10;99.90;;;;;;5110239;28;20127;-69
2021/10/30 10:08:45;;;;;;;14.63;9.80;;;12.20;99.90;;;;;;5093953;28;20481;-70
2021/10/30 10:11:13;;;;;;;13.63;9.30;;;12.20;99.90;;;;;;5094153;28;20062;-69
2021/10/30 10:13:41;;;;;;;11.27;8.90;;;12.30;99.90;;;;;;5110537;28;20066;-69
2021/10/30 10:16:20;;;;;;;14.15;8.73;;;12.30;99.90;;;;;;5094268;28;20040;-70
2021/10/30 10:18:56;;;;;;;10.90;8.77;;;12.50;99.90;;;;;;5093786;28;20070;-71
2021/10/30 10:21:23;;;;;;;12.45;9.07;;;12.50;99.90;;;;;;5094524;28;20044;-69
2021/10/30 10:23:49;;;;;;;13.35;8.98;;;12.50;99.90;;;;;;5093775;28;20096;-70
2021/10/30 10:26:15;;;;;;;11.57;8.45;;;12.50;99.90;;;;;;5092858;28;20523;-70
2021/10/30 10:28:41;;;;;;;12.70;8.68;;;12.60;99.90;;;;;;5092763;28;20039;-70
2021/10/30 10:31:22;;;;;;;11.75;8.20;;;12.60;99.90;;;;;;5094255;28;20040;-70
2021/10/30 10:34:11;;;;;;;14.02;9.48;;;12.60;99.90;;;;;;5092855;28;20067;-70
2021/10/30 10:36:38;;;;;;;11.88;8.20;;;12.60;99.90;;;;;;5094341;28;20481;-70
2021/10/30 10:39:03;;;;;;;10.30;8.38;;;12.60;99.90;;;;;;5093490;28;20388;-71
2021/10/30 10:41:42;;;;;;;11.02;8.75;;;12.60;99.90;;;;;;5092352;28;20044;-71
2021/10/30 10:44:13;;;;;;;9.88;8.48;;;12.60;99.90;;;;;;5094254;28;20043;-71
2021/10/30 10:46:50;;;;;;;12.77;9.55;;;12.60;99.90;;;;;;5091562;28;20040;-71
2021/10/30 10:49:48;;;;;;;16.38;11.43;;;12.60;99.90;;;;;;5092452;28;20061;-71
2021/10/30 10:52:24;;;;;;;11.73;9.32;;;12.60;99.90;;;;;;5092511;28;20507;-71
2021/10/30 10:54:56;;;;;;;15.60;9.20;;;12.70;99.90;;;;;;5092322;28;20552;-72
2021/10/30 10:57:27;;;;;;;16.67;10.07;;;12.70;99.90;;;;;;5092773;28;20047;-71
2021/10/30 11:00:15;;;;;;;11.52;9.00;;;12.70;99.90;;;;;;5092152;28;20488;-72
2021/10/30 11:02:51;;;;;;;11.75;9.18;;;12.70;99.90;;;;;;5093536;28;20040;-71
2021/10/30 11:05:23;;;;;;;15.30;9.95;;;12.70;99.90;;;;;;5093377;28;20051;-71
2021/10/30 11:07:49;;;;;;;11.18;7.90;;;12.70;99.90;;;;;;5093788;28;20507;-71
2021/10/30 11:10:19;;;;;;;12.30;8.98;;;12.70;99.90;;;;;;5092997;28;20040;-72
2021/10/30 11:13:00;;;;;;;12.30;8.55;;;12.80;99.90;;;;;;5093688;28;20084;-72
2021/10/30 11:15:39;;;;;;;10.25;8.32;;;12.70;99.90;;;;;;5093521;28;20040;-71
2021/10/30 11:20:46;;;;;;;10.13;8.18;;;12.70;99.90;;;;;;5091881;28;20048;-71
2021/10/30 11:23:17;;;;;;;13.75;8.75;;;12.70;99.90;;;;;;5075170;28;20071;-72
2021/10/30 11:25:43;;;;;;;12.32;7.65;;;12.60;99.90;;;;;;5093730;28;20156;-72
2021/10/30 11:28:08;;;;;;;13.43;8.55;;;12.70;99.90;;;;;;5093529;28;20044;-72
2021/10/30 11:30:35;;;;;;;11.88;8.20;;;12.60;99.90;;;;;;5093433;28;20495;-72
2021/10/30 11:33:24;;;;;;;11.48;8.13;;;12.60;99.90;;;;;;5093782;28;20065;-72
2021/10/30 11:36:00;;;;;;;10.35;8.70;;;12.60;99.90;;;;;;5093218;28;20044;-72
2021/10/30 11:38:50;;;;;;;12.40;8.77;;;12.70;99.90;;;;;;5093164;28;20048;-72
2021/10/30 11:41:20;;;;;;;10.02;8.20;;;12.60;99.90;;;;;;5093658;28;20036;-72
2021/10/30 11:43:48;;;;;;;10.35;8.27;;;12.70;99.90;;;;;;5092966;28;20044;-72
2021/10/30 11:46:19;;;;;;;11.88;8.73;;;12.70;99.90;;;;;;5095196;28;20055;-72
2021/10/30 11:48:47;;;;;;;12.55;8.30;;;12.70;99.90;;;;;;5096774;28;20040;-72
2021/10/30 11:51:21;;;;;;;10.10;7.63;;;12.70;99.90;;;;;;5097210;28;20086;-72
2021/10/30 11:53:50;;;;;;;13.20;9.38;;;12.80;99.90;;;;;;5097735;28;20044;-72
2021/10/30 11:56:18;;;;;;;10.98;8.90;;;12.70;99.90;;;;;;5097077;28;20510;-72
2021/10/30 11:58:45;;;;;;;11.60;8.18;;;12.80;99.90;;;;;;5096607;28;20476;-72
2021/10/30 12:01:28;;;;;;;15.00;9.63;;;12.80;99.90;;;;;;5096831;28;20435;-72
2021/10/30 12:04:05;;;;;;;11.95;8.10;;;12.80;99.90;;;;;;5097198;28;20408;-72
2021/10/30 12:06:59;;;;;;;12.93;9.25;;;12.80;99.90;;;;;;5097475;28;20036;-72
2021/10/30 12:09:32;;;;;;;11.63;8.13;;;12.80;99.90;;;;;;5092477;28;20484;-72
2021/10/30 12:12:10;;;;;;;11.82;8.63;;;12.80;99.90;;;;;;5112805;28;20051;-71
2021/10/30 12:14:41;;;;;;;12.50;8.63;;;12.90;99.90;;;;;;5097137;28;20521;-72
2021/10/30 12:17:13;;;;;;;12.32;9.02;;;12.80;99.90;;;;;;5096463;28;20043;-72
2021/10/30 12:19:40;;;;;;;10.32;8.13;;;12.80;99.90;;;;;;5096440;28;20093;-72
2021/10/30 12:22:27;;;;;;;12.23;8.55;;;12.80;99.90;;;;;;5095864;28;20054;-72
2021/10/30 12:25:07;;;;;;;12.23;8.30;;;12.90;99.90;;;;;;5095230;28;20048;-71
2021/10/30 12:27:49;;;;;;;10.52;8.02;;;12.90;99.90;;;;;;5096229;28;20044;-71
2021/10/30 12:30:24;;;;;;;10.50;8.00;;;12.90;99.90;;;;;;5077708;28;20115;-70
2021/10/30 12:32:51;;;;;;;9.35;6.90;;;13.00;99.90;;;;;;5096186;28;20036;-70
2021/10/30 12:35:21;;;;;;;12.13;7.95;;;13.00;99.90;;;;;;5095949;28;20036;-66
2021/10/30 12:37:55;;;;;;;9.38;6.45;;;13.10;99.90;;;;;;5111807;28;20055;-68
2021/10/30 12:40:32;;;;;;;9.88;6.90;;;13.20;99.90;;;;;;5094663;28;20040;-69